createdAt,value
2023-04-15T00:16:38.935Z,9.80
2023-04-15T00:20:37.301Z,10.60
2023-04-15T00:24:37.992Z,9.10
2023-04-15T00:29:08.486Z,10.10
2023-04-15T00:33:27.421Z,9.70
2023-04-15T00:50:29.302Z,9.40
2023-04-15T00:54:58.673Z,9.30
2023-04-15T00:59:29.041Z,9.50
2023-04-15T01:16:37.912Z,9.20
2023-04-15T01:21:00.321Z,8.80
2023-04-15T01:38:04.188Z,8.40
2023-04-15T01:42:33.534Z,8.50
2023-04-15T01:47:04.269Z,7.60
2023-04-15T02:05:05.617Z,8.20
2023-04-15T02:35:43.222Z,9.30
2023-04-15T02:40:01.332Z,9.60
2023-04-15T02:44:20.664Z,9.10
2023-04-15T03:07:01.346Z,9.90
2023-04-15T03:11:19.609Z,9.40
2023-04-15T03:15:37.481Z,9.90
2023-04-15T03:32:46.873Z,10.20
2023-04-15T03:37:03.163Z,9.70
2023-04-15T03:41:32.490Z,9.60
2023-04-15T04:03:09.043Z,9.50
2023-04-15T04:07:27.530Z,10.70
2023-04-15T04:24:18.033Z,10.50
2023-04-15T04:28:47.967Z,10.00
2023-04-15T04:45:55.762Z,11.70
2023-04-15T04:50:25.353Z,11.00
2023-04-15T04:54:54.840Z,11.80
2023-04-15T04:59:13.182Z,11.50
2023-04-15T05:03:32.324Z,11.30
2023-04-15T05:07:54.179Z,10.90
2023-04-15T05:11:52.503Z,12.50
2023-04-15T05:16:22.088Z,11.40
2023-04-15T05:56:19.047Z,11.50
2023-04-15T06:00:18.656Z,11.70
2023-04-15T06:04:47.402Z,11.50
2023-04-15T06:09:01.331Z,11.10
2023-04-15T06:13:15.892Z,11.60
2023-04-15T06:30:20.233Z,12.20
2023-04-15T06:34:31.251Z,11.20
2023-04-15T06:39:00.810Z,11.40
2023-04-15T06:43:23.671Z,11.10
2023-04-15T06:47:41.677Z,11.00
2023-04-15T06:51:50.338Z,11.70
2023-04-15T06:56:02.385Z,12.20
2023-04-15T07:17:08.048Z,11.00
2023-04-15T07:21:17.157Z,11.10
2023-04-15T07:25:39.802Z,10.70
2023-04-15T07:42:19.671Z,9.80
2023-04-15T07:46:45.094Z,10.40
2023-04-15T07:50:38.588Z,10.90
2023-04-15T07:54:48.291Z,10.80
2023-04-15T07:58:47.679Z,11.00
2023-04-15T08:02:53.795Z,11.30
2023-04-15T08:10:10.870Z,11.90
2023-04-15T08:14:12.769Z,11.60
2023-04-15T08:18:28.568Z,11.30
2023-04-15T08:22:56.816Z,11.90
2023-04-15T08:27:28.322Z,12.30
2023-04-15T08:31:58.449Z,11.70
2023-04-15T08:36:27.646Z,11.50
2023-04-15T08:40:49.667Z,11.70
2023-04-15T08:45:10.221Z,11.70
2023-04-15T08:49:20.865Z,11.40
2023-04-15T08:57:58.284Z,11.30
2023-04-15T09:02:20.573Z,11.60
2023-04-15T09:06:22.660Z,10.10
2023-04-15T09:10:20.766Z,10.40
2023-04-15T09:14:28.301Z,10.10
2023-04-15T09:18:57.055Z,10.40
2023-04-15T09:23:21.335Z,10.20
2023-04-15T09:27:37.708Z,10.40
2023-04-15T09:31:53.126Z,11.30
2023-04-15T09:36:22.761Z,11.00
2023-04-15T09:40:52.574Z,10.50
2023-04-15T10:10:37.426Z,11.70
2023-04-15T10:14:15.804Z,11.90
2023-04-15T10:22:31.409Z,12.10
2023-04-15T10:26:31.909Z,9.50
2023-04-15T10:30:56.572Z,9.80
2023-04-15T10:54:43.245Z,10.00
2023-04-15T10:59:12.479Z,9.30
2023-04-15T11:03:48.084Z,9.00
2023-04-15T11:08:11.922Z,9.70
2023-04-15T11:12:46.178Z,8.90
2023-04-15T11:16:39.361Z,8.10
2023-04-15T11:20:59.787Z,9.20
2023-04-15T11:25:28.567Z,8.60
2023-04-15T11:29:50.998Z,8.10
2023-04-15T11:34:08.696Z,8.10
2023-04-15T11:38:26.959Z,7.90
2023-04-15T11:42:46.525Z,7.20
2023-04-15T12:08:14.368Z,6.70
2023-04-15T12:12:47.818Z,5.90
2023-04-15T12:17:23.523Z,4.90
2023-04-15T12:25:45.721Z,6.20
2023-04-15T12:30:08.223Z,6.70
2023-04-15T12:34:38.813Z,5.70
2023-04-15T12:39:08.760Z,5.50
2023-04-15T14:15:54.356Z,6.40
2023-04-15T14:19:35.188Z,6.20
2023-04-15T14:24:04.690Z,6.90
2023-04-15T14:28:24.239Z,6.90
2023-04-15T14:54:03.429Z,8.10
2023-04-15T14:58:25.570Z,8.60
2023-04-15T15:02:47.922Z,8.70
2023-04-15T15:11:21.797Z,8.30
2023-04-15T15:15:51.392Z,9.40
2023-04-15T15:20:03.115Z,8.60
2023-04-15T15:24:21.617Z,10.50
2023-04-15T15:28:39.189Z,10.20
2023-04-15T15:45:29.279Z,10.30
2023-04-15T15:49:58.197Z,10.30
2023-04-15T15:54:16.184Z,10.20
2023-04-15T15:58:33.728Z,10.30
2023-04-15T16:03:05.748Z,10.90
2023-04-15T16:07:07.830Z,10.30
2023-04-15T16:10:54.963Z,10.00
2023-04-15T16:15:13.563Z,9.60
2023-04-15T16:19:15.456Z,11.00
2023-04-15T16:23:22.132Z,11.20
2023-04-15T16:27:40.781Z,11.00
2023-04-15T16:31:52.747Z,10.20
2023-04-15T16:35:23.570Z,10.20
2023-04-15T16:39:22.244Z,9.30
2023-04-15T16:43:13.068Z,10.50
2023-04-15T17:17:19.570Z,12.20
2023-04-15T17:21:26.007Z,12.30
2023-04-15T17:25:56.564Z,13.60
2023-04-15T17:52:54.826Z,13.00
2023-04-15T17:57:24.136Z,13.50
2023-04-15T18:18:18.289Z,14.90
2023-04-15T18:22:36.403Z,14.60
2023-04-15T18:27:06.014Z,12.50
2023-04-15T18:31:25.013Z,14.10
2023-04-15T18:49:06.048Z,15.90
2023-04-15T18:53:24.355Z,14.20
2023-04-15T19:19:25.090Z,16.10
2023-04-15T19:23:47.661Z,15.50
2023-04-15T19:28:17.146Z,16.40
2023-04-15T19:36:34.661Z,16.80
2023-04-15T19:41:03.727Z,14.40
2023-04-15T19:45:37.627Z,15.80
2023-04-15T19:54:23.426Z,15.10
2023-04-15T20:07:07.661Z,12.60
2023-04-15T20:12:46.011Z,13.30
2023-04-15T20:28:48.824Z,12.20
2023-04-15T20:33:08.141Z,13.10
2023-04-15T20:37:27.545Z,12.40
2023-04-15T20:59:08.644Z,13.00
2023-04-15T21:03:37.679Z,11.20
2023-04-15T21:25:31.101Z,11.90
2023-04-15T21:29:52.921Z,10.40
2023-04-15T21:34:11.885Z,12.00
2023-04-15T21:59:56.798Z,11.90
2023-04-15T22:04:26.187Z,10.70
2023-04-15T22:08:57.915Z,10.50
2023-04-15T22:25:52.006Z,10.80
2023-04-15T22:34:22.906Z,9.60
2023-04-15T22:38:52.194Z,11.20
2023-04-15T22:43:20.998Z,9.20
2023-04-15T22:47:49.732Z,9.90
2023-04-15T22:52:17.190Z,9.30
2023-04-15T23:27:07.927Z,9.10
2023-04-15T23:31:39.901Z,9.00
2023-04-15T23:36:09.437Z,8.70
2023-04-15T23:40:38.169Z,8.60
2023-04-15T23:45:07.515Z,8.60
2023-04-15T23:49:24.831Z,8.00
2023-04-15T23:53:44.375Z,7.40
